Terminal Aerodrome Forecast
Issued by NWS

Home | Current Version | Previous Version | Text Only | Print | Product List | Glossary On
Versions: 1 2 3 4 5 6 7 8 9 10 11 12 13 14 15 16 17 18 19 20 21 22 23 24 25
000
FTUS41 KOKX 011100
TAFSWF
TAF
KSWF 011120Z 0112/0218 03010KT 6SM -RA BR SCT020 OVC040
      TEMPO 0112/0116 4SM -RA BR OVC020
     FM011600 02012G18KT 5SM -RA BR OVC020
     FM012100 36016G26KT P6SM OVC025
     FM020000 34016G26KT P6SM BKN035
     FM021300 34020G30KT P6SM SCT035
      AMD NOT SKED=

USA.gov is the U.S. government's official web portal to all federal, state and local government web resources and services.